sensor_id;sensor_type;location;lat;lon;timestamp;P1;durP1;ratioP1;P2;durP2;ratioP2
80423;SDS011;69765;47.668;19.326;2023-08-20T00:01:32;13.10;;;9.73;;
80423;SDS011;69765;47.668;19.326;2023-08-20T00:04:34;14.02;;;9.88;;
80423;SDS011;69765;47.668;19.326;2023-08-20T00:07:37;11.23;;;8.75;;
80423;SDS011;69765;47.668;19.326;2023-08-20T00:10:40;14.10;;;9.05;;
80423;SDS011;69765;47.668;19.326;2023-08-20T00:13:42;12.45;;;8.50;;
80423;SDS011;69765;47.668;19.326;2023-08-20T00:16:44;11.70;;;8.68;;
80423;SDS011;69765;47.668;19.326;2023-08-20T00:19:47;12.18;;;8.40;;
80423;SDS011;69765;47.668;19.326;2023-08-20T00:22:49;11.75;;;8.90;;
80423;SDS011;69765;47.668;19.326;2023-08-20T00:25:51;12.73;;;8.65;;
80423;SDS011;69765;47.668;19.326;2023-08-20T00:28:53;12.40;;;8.73;;
80423;SDS011;69765;47.668;19.326;2023-08-20T00:31:55;10.63;;;8.52;;
80423;SDS011;69765;47.668;19.326;2023-08-20T00:34:57;12.15;;;9.68;;
80423;SDS011;69765;47.668;19.326;2023-08-20T00:37:59;12.70;;;9.48;;
80423;SDS011;69765;47.668;19.326;2023-08-20T00:41:01;11.65;;;8.68;;
80423;SDS011;69765;47.668;19.326;2023-08-20T00:44:03;14.13;;;9.32;;
80423;SDS011;69765;47.668;19.326;2023-08-20T00:47:05;10.07;;;8.65;;
80423;SDS011;69765;47.668;19.326;2023-08-20T00:50:08;14.30;;;9.30;;
80423;SDS011;69765;47.668;19.326;2023-08-20T00:53:11;11.55;;;9.15;;
80423;SDS011;69765;47.668;19.326;2023-08-20T00:56:15;11.38;;;9.93;;
80423;SDS011;69765;47.668;19.326;2023-08-20T00:59:17;12.65;;;9.60;;
80423;SDS011;69765;47.668;19.326;2023-08-20T01:02:19;10.52;;;8.68;;
80423;SDS011;69765;47.668;19.326;2023-08-20T01:05:21;10.65;;;9.13;;
80423;SDS011;69765;47.668;19.326;2023-08-20T01:08:29;11.75;;;9.20;;
80423;SDS011;69765;47.668;19.326;2023-08-20T01:11:41;14.65;;;9.10;;
80423;SDS011;69765;47.668;19.326;2023-08-20T01:14:47;13.02;;;9.20;;
80423;SDS011;69765;47.668;19.326;2023-08-20T01:17:50;10.63;;;8.50;;
80423;SDS011;69765;47.668;19.326;2023-08-20T01:20:53;14.85;;;9.80;;
80423;SDS011;69765;47.668;19.326;2023-08-20T01:30:06;11.75;;;9.15;;
80423;SDS011;69765;47.668;19.326;2023-08-20T01:33:10;12.00;;;8.57;;
80423;SDS011;69765;47.668;19.326;2023-08-20T01:36:14;11.70;;;9.20;;
80423;SDS011;69765;47.668;19.326;2023-08-20T01:39:16;10.40;;;8.85;;
80423;SDS011;69765;47.668;19.326;2023-08-20T01:42:18;10.77;;;8.82;;
80423;SDS011;69765;47.668;19.326;2023-08-20T01:45:21;11.77;;;8.95;;
80423;SDS011;69765;47.668;19.326;2023-08-20T01:48:23;13.32;;;8.65;;
80423;SDS011;69765;47.668;19.326;2023-08-20T01:51:26;13.55;;;9.35;;
80423;SDS011;69765;47.668;19.326;2023-08-20T01:54:28;12.23;;;9.43;;
80423;SDS011;69765;47.668;19.326;2023-08-20T01:57:31;11.00;;;9.48;;
80423;SDS011;69765;47.668;19.326;2023-08-20T02:00:34;13.38;;;11.02;;
80423;SDS011;69765;47.668;19.326;2023-08-20T02:03:36;11.38;;;8.90;;
80423;SDS011;69765;47.668;19.326;2023-08-20T02:06:42;15.32;;;10.23;;
80423;SDS011;69765;47.668;19.326;2023-08-20T02:09:44;13.18;;;10.25;;
80423;SDS011;69765;47.668;19.326;2023-08-20T02:12:47;11.13;;;9.93;;
80423;SDS011;69765;47.668;19.326;2023-08-20T02:15:57;12.52;;;9.88;;
80423;SDS011;69765;47.668;19.326;2023-08-20T02:19:00;11.43;;;9.38;;
80423;SDS011;69765;47.668;19.326;2023-08-20T02:22:04;13.52;;;10.00;;
80423;SDS011;69765;47.668;19.326;2023-08-20T02:25:06;13.07;;;10.27;;
80423;SDS011;69765;47.668;19.326;2023-08-20T02:28:08;12.45;;;10.10;;
80423;SDS011;69765;47.668;19.326;2023-08-20T02:31:13;11.77;;;8.68;;
80423;SDS011;69765;47.668;19.326;2023-08-20T02:34:15;11.88;;;9.63;;
80423;SDS011;69765;47.668;19.326;2023-08-20T02:37:17;10.73;;;9.18;;
80423;SDS011;69765;47.668;19.326;2023-08-20T02:40:19;10.35;;;9.07;;
80423;SDS011;69765;47.668;19.326;2023-08-20T02:43:21;11.25;;;8.77;;
80423;SDS011;69765;47.668;19.326;2023-08-20T02:46:23;13.27;;;8.68;;
80423;SDS011;69765;47.668;19.326;2023-08-20T02:49:25;12.68;;;9.10;;
80423;SDS011;69765;47.668;19.326;2023-08-20T02:52:28;10.82;;;7.93;;
80423;SDS011;69765;47.668;19.326;2023-08-20T02:55:30;9.93;;;8.55;;
80423;SDS011;69765;47.668;19.326;2023-08-20T02:58:32;10.90;;;8.82;;
80423;SDS011;69765;47.668;19.326;2023-08-20T03:01:34;10.43;;;8.80;;
80423;SDS011;69765;47.668;19.326;2023-08-20T03:04:36;10.95;;;8.90;;
80423;SDS011;69765;47.668;19.326;2023-08-20T03:07:38;12.40;;;8.55;;
80423;SDS011;69765;47.668;19.326;2023-08-20T03:10:40;10.93;;;8.32;;
80423;SDS011;69765;47.668;19.326;2023-08-20T03:13:43;9.73;;;8.52;;
80423;SDS011;69765;47.668;19.326;2023-08-20T03:16:45;10.65;;;8.43;;
80423;SDS011;69765;47.668;19.326;2023-08-20T03:19:59;11.82;;;8.98;;
80423;SDS011;69765;47.668;19.326;2023-08-20T03:23:02;11.00;;;8.25;;
80423;SDS011;69765;47.668;19.326;2023-08-20T03:26:04;10.60;;;8.43;;
80423;SDS011;69765;47.668;19.326;2023-08-20T03:29:06;11.13;;;8.65;;
80423;SDS011;69765;47.668;19.326;2023-08-20T03:32:08;9.90;;;8.85;;
80423;SDS011;69765;47.668;19.326;2023-08-20T03:35:11;10.10;;;8.50;;
80423;SDS011;69765;47.668;19.326;2023-08-20T03:38:14;10.10;;;8.88;;
80423;SDS011;69765;47.668;19.326;2023-08-20T03:41:16;11.07;;;8.57;;
80423;SDS011;69765;47.668;19.326;2023-08-20T03:44:20;12.68;;;9.55;;
80423;SDS011;69765;47.668;19.326;2023-08-20T03:47:24;12.30;;;8.43;;
80423;SDS011;69765;47.668;19.326;2023-08-20T03:50:26;10.30;;;8.32;;
80423;SDS011;69765;47.668;19.326;2023-08-20T03:53:28;12.00;;;8.38;;
80423;SDS011;69765;47.668;19.326;2023-08-20T03:56:30;10.75;;;8.40;;
80423;SDS011;69765;47.668;19.326;2023-08-20T03:59:32;12.65;;;8.77;;
80423;SDS011;69765;47.668;19.326;2023-08-20T04:02:34;11.82;;;8.75;;
80423;SDS011;69765;47.668;19.326;2023-08-20T04:05:37;13.32;;;9.10;;
80423;SDS011;69765;47.668;19.326;2023-08-20T04:08:39;10.00;;;8.45;;
80423;SDS011;69765;47.668;19.326;2023-08-20T04:11:41;9.38;;;8.02;;
80423;SDS011;69765;47.668;19.326;2023-08-20T04:14:44;11.30;;;8.77;;
80423;SDS011;69765;47.668;19.326;2023-08-20T04:17:46;10.38;;;7.78;;
80423;SDS011;69765;47.668;19.326;2023-08-20T04:20:53;10.85;;;7.82;;
80423;SDS011;69765;47.668;19.326;2023-08-20T04:23:55;10.00;;;7.78;;
80423;SDS011;69765;47.668;19.326;2023-08-20T04:26:58;11.20;;;7.28;;
80423;SDS011;69765;47.668;19.326;2023-08-20T04:30:02;10.65;;;8.45;;
80423;SDS011;69765;47.668;19.326;2023-08-20T04:33:04;9.82;;;7.20;;
80423;SDS011;69765;47.668;19.326;2023-08-20T04:36:07;10.02;;;7.10;;
80423;SDS011;69765;47.668;19.326;2023-08-20T04:39:09;9.77;;;7.47;;
80423;SDS011;69765;47.668;19.326;2023-08-20T04:42:16;10.15;;;7.65;;
80423;SDS011;69765;47.668;19.326;2023-08-20T04:45:19;9.57;;;7.53;;
80423;SDS011;69765;47.668;19.326;2023-08-20T04:48:22;9.88;;;7.43;;
80423;SDS011;69765;47.668;19.326;2023-08-20T04:51:24;11.38;;;7.18;;
80423;SDS011;69765;47.668;19.326;2023-08-20T04:54:26;8.60;;;7.30;;
80423;SDS011;69765;47.668;19.326;2023-08-20T04:57:28;9.45;;;7.00;;
80423;SDS011;69765;47.668;19.326;2023-08-20T05:00:31;9.85;;;7.07;;
80423;SDS011;69765;47.668;19.326;2023-08-20T05:03:42;9.02;;;7.45;;
80423;SDS011;69765;47.668;19.326;2023-08-20T05:06:44;8.05;;;7.03;;
80423;SDS011;69765;47.668;19.326;2023-08-20T05:09:46;9.75;;;7.53;;
80423;SDS011;69765;47.668;19.326;2023-08-20T05:12:48;8.85;;;7.43;;
80423;SDS011;69765;47.668;19.326;2023-08-20T05:15:51;9.32;;;6.93;;
80423;SDS011;69765;47.668;19.326;2023-08-20T05:18:53;7.20;;;6.43;;
80423;SDS011;69765;47.668;19.326;2023-08-20T05:21:55;9.80;;;6.68;;
80423;SDS011;69765;47.668;19.326;2023-08-20T05:25:03;7.80;;;6.40;;
80423;SDS011;69765;47.668;19.326;2023-08-20T05:28:05;8.48;;;6.82;;
80423;SDS011;69765;47.668;19.326;2023-08-20T05:31:08;9.15;;;6.47;;
80423;SDS011;69765;47.668;19.326;2023-08-20T05:34:12;11.45;;;6.82;;
80423;SDS011;69765;47.668;19.326;2023-08-20T05:37:14;9.98;;;6.72;;
80423;SDS011;69765;47.668;19.326;2023-08-20T05:40:16;8.80;;;6.53;;
80423;SDS011;69765;47.668;19.326;2023-08-20T05:43:18;7.68;;;6.88;;
80423;SDS011;69765;47.668;19.326;2023-08-20T05:46:21;8.48;;;7.15;;
80423;SDS011;69765;47.668;19.326;2023-08-20T05:49:23;7.18;;;6.45;;
80423;SDS011;69765;47.668;19.326;2023-08-20T05:52:25;7.68;;;6.88;;
80423;SDS011;69765;47.668;19.326;2023-08-20T05:55:27;8.98;;;7.20;;
80423;SDS011;69765;47.668;19.326;2023-08-20T05:58:30;9.43;;;7.00;;
80423;SDS011;69765;47.668;19.326;2023-08-20T06:01:32;7.90;;;6.57;;
80423;SDS011;69765;47.668;19.326;2023-08-20T06:04:34;8.18;;;6.43;;
80423;SDS011;69765;47.668;19.326;2023-08-20T06:07:36;11.65;;;6.63;;
80423;SDS011;69765;47.668;19.326;2023-08-20T06:10:38;7.47;;;5.35;;
80423;SDS011;69765;47.668;19.326;2023-08-20T06:13:40;7.47;;;5.93;;
80423;SDS011;69765;47.668;19.326;2023-08-20T06:16:43;6.57;;;5.75;;
80423;SDS011;69765;47.668;19.326;2023-08-20T06:19:46;7.10;;;6.32;;
80423;SDS011;69765;47.668;19.326;2023-08-20T06:22:48;7.70;;;6.93;;
80423;SDS011;69765;47.668;19.326;2023-08-20T06:25:50;7.35;;;5.72;;
80423;SDS011;69765;47.668;19.326;2023-08-20T06:28:52;6.85;;;6.25;;
80423;SDS011;69765;47.668;19.326;2023-08-20T06:31:54;9.40;;;6.10;;
80423;SDS011;69765;47.668;19.326;2023-08-20T06:34:56;6.57;;;5.97;;
80423;SDS011;69765;47.668;19.326;2023-08-20T06:37:58;7.18;;;6.05;;
80423;SDS011;69765;47.668;19.326;2023-08-20T06:41:00;6.40;;;5.78;;
80423;SDS011;69765;47.668;19.326;2023-08-20T06:44:02;6.88;;;6.20;;
80423;SDS011;69765;47.668;19.326;2023-08-20T06:47:04;7.18;;;6.40;;
80423;SDS011;69765;47.668;19.326;2023-08-20T06:50:06;7.85;;;6.53;;
80423;SDS011;69765;47.668;19.326;2023-08-20T06:53:09;11.20;;;6.22;;
80423;SDS011;69765;47.668;19.326;2023-08-20T06:56:11;7.75;;;6.60;;
80423;SDS011;69765;47.668;19.326;2023-08-20T06:59:13;11.05;;;6.30;;
80423;SDS011;69765;47.668;19.326;2023-08-20T07:02:15;8.30;;;6.32;;
80423;SDS011;69765;47.668;19.326;2023-08-20T07:05:17;6.72;;;5.85;;
80423;SDS011;69765;47.668;19.326;2023-08-20T07:08:19;7.88;;;6.32;;
80423;SDS011;69765;47.668;19.326;2023-08-20T07:11:21;7.03;;;6.22;;
80423;SDS011;69765;47.668;19.326;2023-08-20T07:14:23;7.30;;;6.57;;
80423;SDS011;69765;47.668;19.326;2023-08-20T07:17:26;8.30;;;6.25;;
80423;SDS011;69765;47.668;19.326;2023-08-20T07:20:28;6.70;;;6.03;;
80423;SDS011;69765;47.668;19.326;2023-08-20T07:23:30;7.18;;;6.13;;
80423;SDS011;69765;47.668;19.326;2023-08-20T07:26:32;7.80;;;6.57;;
80423;SDS011;69765;47.668;19.326;2023-08-20T07:29:34;7.80;;;6.45;;
80423;SDS011;69765;47.668;19.326;2023-08-20T07:32:36;8.75;;;6.90;;
80423;SDS011;69765;47.668;19.326;2023-08-20T07:35:38;8.88;;;7.28;;
80423;SDS011;69765;47.668;19.326;2023-08-20T07:38:40;7.38;;;6.35;;
80423;SDS011;69765;47.668;19.326;2023-08-20T07:41:45;6.95;;;6.25;;
80423;SDS011;69765;47.668;19.326;2023-08-20T07:44:47;7.60;;;6.90;;
80423;SDS011;69765;47.668;19.326;2023-08-20T07:47:49;7.28;;;6.40;;
80423;SDS011;69765;47.668;19.326;2023-08-20T07:50:51;7.50;;;6.72;;
80423;SDS011;69765;47.668;19.326;2023-08-20T07:53:53;7.13;;;6.07;;
80423;SDS011;69765;47.668;19.326;2023-08-20T07:56:55;7.10;;;6.22;;
80423;SDS011;69765;47.668;19.326;2023-08-20T07:59:57;8.60;;;6.45;;
80423;SDS011;69765;47.668;19.326;2023-08-20T08:02:59;8.07;;;6.47;;
80423;SDS011;69765;47.668;19.326;2023-08-20T08:06:01;7.43;;;6.72;;
80423;SDS011;69765;47.668;19.326;2023-08-20T08:09:26;8.07;;;7.30;;
80423;SDS011;69765;47.668;19.326;2023-08-20T08:12:28;8.30;;;7.30;;
80423;SDS011;69765;47.668;19.326;2023-08-20T08:15:30;7.85;;;6.28;;
80423;SDS011;69765;47.668;19.326;2023-08-20T08:18:33;7.40;;;6.70;;
80423;SDS011;69765;47.668;19.326;2023-08-20T08:21:35;7.28;;;6.22;;
80423;SDS011;69765;47.668;19.326;2023-08-20T08:24:37;8.30;;;6.65;;
80423;SDS011;69765;47.668;19.326;2023-08-20T08:27:39;10.90;;;6.80;;
80423;SDS011;69765;47.668;19.326;2023-08-20T08:30:59;7.07;;;6.32;;
80423;SDS011;69765;47.668;19.326;2023-08-20T08:34:01;7.40;;;6.68;;
80423;SDS011;69765;47.668;19.326;2023-08-20T08:37:04;8.43;;;7.60;;
80423;SDS011;69765;47.668;19.326;2023-08-20T08:40:07;7.97;;;7.28;;
80423;SDS011;69765;47.668;19.326;2023-08-20T08:43:10;7.82;;;7.00;;
80423;SDS011;69765;47.668;19.326;2023-08-20T08:46:18;6.72;;;6.13;;
80423;SDS011;69765;47.668;19.326;2023-08-20T08:49:21;6.97;;;6.28;;
80423;SDS011;69765;47.668;19.326;2023-08-20T08:52:23;7.57;;;6.15;;
80423;SDS011;69765;47.668;19.326;2023-08-20T08:55:25;7.72;;;6.93;;
80423;SDS011;69765;47.668;19.326;2023-08-20T08:58:27;7.18;;;6.53;;
80423;SDS011;69765;47.668;19.326;2023-08-20T09:01:29;7.40;;;6.68;;
80423;SDS011;69765;47.668;19.326;2023-08-20T09:04:39;7.35;;;6.35;;
80423;SDS011;69765;47.668;19.326;2023-08-20T09:07:42;9.80;;;6.72;;
80423;SDS011;69765;47.668;19.326;2023-08-20T09:10:45;7.13;;;6.35;;
80423;SDS011;69765;47.668;19.326;2023-08-20T09:13:47;7.13;;;6.43;;
80423;SDS011;69765;47.668;19.326;2023-08-20T09:16:59;7.57;;;6.85;;
80423;SDS011;69765;47.668;19.326;2023-08-20T09:20:01;7.25;;;6.63;;
80423;SDS011;69765;47.668;19.326;2023-08-20T09:23:04;7.50;;;6.90;;
80423;SDS011;69765;47.668;19.326;2023-08-20T09:26:07;7.45;;;6.22;;
80423;SDS011;69765;47.668;19.326;2023-08-20T09:29:09;7.32;;;6.63;;
80423;SDS011;69765;47.668;19.326;2023-08-20T09:32:15;7.20;;;6.55;;
80423;SDS011;69765;47.668;19.326;2023-08-20T09:35:18;6.50;;;5.97;;
80423;SDS011;69765;47.668;19.326;2023-08-20T09:38:20;7.25;;;6.55;;
80423;SDS011;69765;47.668;19.326;2023-08-20T09:41:26;7.55;;;6.28;;
80423;SDS011;69765;47.668;19.326;2023-08-20T09:44:31;6.90;;;6.28;;
80423;SDS011;69765;47.668;19.326;2023-08-20T09:47:35;7.15;;;6.55;;
80423;SDS011;69765;47.668;19.326;2023-08-20T09:50:39;7.10;;;6.50;;
80423;SDS011;69765;47.668;19.326;2023-08-20T09:53:49;7.32;;;6.65;;
80423;SDS011;69765;47.668;19.326;2023-08-20T09:56:53;7.38;;;6.20;;
80423;SDS011;69765;47.668;19.326;2023-08-20T09:59:56;6.22;;;5.72;;
80423;SDS011;69765;47.668;19.326;2023-08-20T10:02:58;6.47;;;5.85;;
80423;SDS011;69765;47.668;19.326;2023-08-20T10:06:01;7.20;;;6.50;;
80423;SDS011;69765;47.668;19.326;2023-08-20T10:09:04;6.50;;;5.90;;
80423;SDS011;69765;47.668;19.326;2023-08-20T10:12:06;6.70;;;6.13;;
80423;SDS011;69765;47.668;19.326;2023-08-20T10:15:08;6.75;;;6.10;;
80423;SDS011;69765;47.668;19.326;2023-08-20T10:18:12;7.03;;;6.43;;
80423;SDS011;69765;47.668;19.326;2023-08-20T10:21:15;7.05;;;6.15;;
80423;SDS011;69765;47.668;19.326;2023-08-20T10:24:17;6.78;;;5.97;;
80423;SDS011;69765;47.668;19.326;2023-08-20T10:27:26;6.78;;;6.20;;
80423;SDS011;69765;47.668;19.326;2023-08-20T10:30:28;7.22;;;6.53;;
80423;SDS011;69765;47.668;19.326;2023-08-20T10:33:30;7.68;;;6.65;;
80423;SDS011;69765;47.668;19.326;2023-08-20T10:36:32;6.65;;;6.05;;
80423;SDS011;69765;47.668;19.326;2023-08-20T10:39:43;6.38;;;5.88;;
80423;SDS011;69765;47.668;19.326;2023-08-20T10:42:54;7.32;;;6.72;;
80423;SDS011;69765;47.668;19.326;2023-08-20T10:49:20;6.55;;;6.00;;
80423;SDS011;69765;47.668;19.326;2023-08-20T10:52:23;7.78;;;7.05;;
80423;SDS011;69765;47.668;19.326;2023-08-20T10:55:25;6.63;;;6.03;;
80423;SDS011;69765;47.668;19.326;2023-08-20T10:58:30;7.30;;;6.60;;
80423;SDS011;69765;47.668;19.326;2023-08-20T11:01:32;6.60;;;6.00;;
80423;SDS011;69765;47.668;19.326;2023-08-20T11:04:34;6.95;;;6.13;;
80423;SDS011;69765;47.668;19.326;2023-08-20T11:07:36;6.57;;;5.82;;
80423;SDS011;69765;47.668;19.326;2023-08-20T11:10:38;6.72;;;5.95;;
80423;SDS011;69765;47.668;19.326;2023-08-20T11:13:40;7.30;;;6.60;;
80423;SDS011;69765;47.668;19.326;2023-08-20T11:16:45;7.20;;;5.70;;
80423;SDS011;69765;47.668;19.326;2023-08-20T11:19:47;7.57;;;5.72;;
80423;SDS011;69765;47.668;19.326;2023-08-20T11:23:08;7.75;;;6.28;;
80423;SDS011;69765;47.668;19.326;2023-08-20T11:26:12;8.43;;;6.47;;
80423;SDS011;69765;47.668;19.326;2023-08-20T11:29:15;6.63;;;6.10;;
80423;SDS011;69765;47.668;19.326;2023-08-20T11:32:26;6.55;;;6.05;;
80423;SDS011;69765;47.668;19.326;2023-08-20T11:35:28;6.50;;;5.90;;
80423;SDS011;69765;47.668;19.326;2023-08-20T11:38:30;6.75;;;6.20;;
80423;SDS011;69765;47.668;19.326;2023-08-20T11:41:35;7.32;;;6.15;;
80423;SDS011;69765;47.668;19.326;2023-08-20T11:44:45;6.80;;;6.20;;
80423;SDS011;69765;47.668;19.326;2023-08-20T11:47:48;6.70;;;5.95;;
80423;SDS011;69765;47.668;19.326;2023-08-20T11:50:50;7.13;;;6.35;;
80423;SDS011;69765;47.668;19.326;2023-08-20T11:53:52;7.28;;;6.18;;
80423;SDS011;69765;47.668;19.326;2023-08-20T11:57:01;6.60;;;6.00;;
80423;SDS011;69765;47.668;19.326;2023-08-20T12:00:05;6.47;;;5.88;;
80423;SDS011;69765;47.668;19.326;2023-08-20T12:03:17;6.57;;;5.85;;
80423;SDS011;69765;47.668;19.326;2023-08-20T12:06:20;7.72;;;5.53;;
80423;SDS011;69765;47.668;19.326;2023-08-20T12:09:22;9.18;;;5.97;;
80423;SDS011;69765;47.668;19.326;2023-08-20T12:12:26;6.45;;;5.85;;
80423;SDS011;69765;47.668;19.326;2023-08-20T12:15:28;6.10;;;5.55;;
80423;SDS011;69765;47.668;19.326;2023-08-20T12:18:30;7.28;;;5.50;;
80423;SDS011;69765;47.668;19.326;2023-08-20T12:21:32;6.50;;;5.90;;
80423;SDS011;69765;47.668;19.326;2023-08-20T12:24:34;7.90;;;5.75;;
80423;SDS011;69765;47.668;19.326;2023-08-20T12:27:36;7.22;;;5.68;;
80423;SDS011;69765;47.668;19.326;2023-08-20T12:30:38;7.55;;;6.50;;
80423;SDS011;69765;47.668;19.326;2023-08-20T12:33:40;5.63;;;5.13;;
80423;SDS011;69765;47.668;19.326;2023-08-20T12:36:43;6.55;;;5.90;;
80423;SDS011;69765;47.668;19.326;2023-08-20T12:39:45;6.43;;;5.80;;
80423;SDS011;69765;47.668;19.326;2023-08-20T12:42:47;7.10;;;5.90;;
80423;SDS011;69765;47.668;19.326;2023-08-20T12:45:49;6.97;;;5.68;;
80423;SDS011;69765;47.668;19.326;2023-08-20T12:48:51;6.15;;;5.65;;
80423;SDS011;69765;47.668;19.326;2023-08-20T12:51:53;6.65;;;6.05;;
80423;SDS011;69765;47.668;19.326;2023-08-20T12:54:55;6.22;;;5.28;;
80423;SDS011;69765;47.668;19.326;2023-08-20T12:58:03;8.07;;;5.43;;
80423;SDS011;69765;47.668;19.326;2023-08-20T13:01:05;6.13;;;5.53;;
80423;SDS011;69765;47.668;19.326;2023-08-20T13:04:09;6.85;;;4.85;;
80423;SDS011;69765;47.668;19.326;2023-08-20T13:07:12;5.70;;;5.03;;
80423;SDS011;69765;47.668;19.326;2023-08-20T13:10:15;6.10;;;5.57;;
80423;SDS011;69765;47.668;19.326;2023-08-20T13:13:17;6.57;;;5.78;;
80423;SDS011;69765;47.668;19.326;2023-08-20T13:16:22;6.15;;;5.55;;
80423;SDS011;69765;47.668;19.326;2023-08-20T13:19:24;6.57;;;5.97;;
80423;SDS011;69765;47.668;19.326;2023-08-20T13:22:26;6.72;;;5.85;;
80423;SDS011;69765;47.668;19.326;2023-08-20T13:25:28;7.32;;;5.10;;
80423;SDS011;69765;47.668;19.326;2023-08-20T13:28:31;6.57;;;5.38;;
80423;SDS011;69765;47.668;19.326;2023-08-20T13:31:33;6.95;;;5.13;;
80423;SDS011;69765;47.668;19.326;2023-08-20T13:34:37;6.32;;;5.53;;
80423;SDS011;69765;47.668;19.326;2023-08-20T13:37:39;7.55;;;5.50;;
80423;SDS011;69765;47.668;19.326;2023-08-20T13:40:42;6.65;;;5.75;;
80423;SDS011;69765;47.668;19.326;2023-08-20T13:43:44;6.53;;;5.85;;
80423;SDS011;69765;47.668;19.326;2023-08-20T13:46:46;7.15;;;6.45;;
80423;SDS011;69765;47.668;19.326;2023-08-20T13:49:48;7.50;;;5.68;;
80423;SDS011;69765;47.668;19.326;2023-08-20T13:52:50;6.85;;;5.32;;
80423;SDS011;69765;47.668;19.326;2023-08-20T13:55:52;7.78;;;6.22;;
80423;SDS011;69765;47.668;19.326;2023-08-20T13:58:55;8.18;;;5.93;;
80423;SDS011;69765;47.668;19.326;2023-08-20T14:01:57;8.57;;;7.72;;
80423;SDS011;69765;47.668;19.326;2023-08-20T14:05:00;6.95;;;6.00;;
80423;SDS011;69765;47.668;19.326;2023-08-20T14:08:02;6.03;;;5.43;;
80423;SDS011;69765;47.668;19.326;2023-08-20T14:11:04;7.18;;;6.53;;
80423;SDS011;69765;47.668;19.326;2023-08-20T14:14:06;7.07;;;6.38;;
80423;SDS011;69765;47.668;19.326;2023-08-20T14:17:08;7.35;;;6.43;;
80423;SDS011;69765;47.668;19.326;2023-08-20T14:20:11;7.32;;;6.63;;
80423;SDS011;69765;47.668;19.326;2023-08-20T14:23:13;9.52;;;5.38;;
80423;SDS011;69765;47.668;19.326;2023-08-20T14:26:15;6.85;;;6.15;;
80423;SDS011;69765;47.668;19.326;2023-08-20T14:29:17;7.50;;;6.10;;
80423;SDS011;69765;47.668;19.326;2023-08-20T14:32:20;7.00;;;6.30;;
80423;SDS011;69765;47.668;19.326;2023-08-20T14:35:22;8.07;;;5.97;;
80423;SDS011;69765;47.668;19.326;2023-08-20T14:38:25;7.30;;;5.72;;
80423;SDS011;69765;47.668;19.326;2023-08-20T14:41:28;6.68;;;6.07;;
80423;SDS011;69765;47.668;19.326;2023-08-20T14:44:30;7.45;;;6.00;;
80423;SDS011;69765;47.668;19.326;2023-08-20T14:47:32;7.53;;;6.15;;
80423;SDS011;69765;47.668;19.326;2023-08-20T14:50:34;6.45;;;5.80;;
80423;SDS011;69765;47.668;19.326;2023-08-20T14:53:39;6.68;;;5.95;;
80423;SDS011;69765;47.668;19.326;2023-08-20T14:56:41;6.82;;;6.20;;
80423;SDS011;69765;47.668;19.326;2023-08-20T14:59:43;7.53;;;6.68;;
80423;SDS011;69765;47.668;19.326;2023-08-20T15:02:45;8.02;;;6.65;;
80423;SDS011;69765;47.668;19.326;2023-08-20T15:05:47;6.55;;;5.85;;
80423;SDS011;69765;47.668;19.326;2023-08-20T15:08:50;7.13;;;5.93;;
80423;SDS011;69765;47.668;19.326;2023-08-20T15:11:52;6.72;;;6.00;;
80423;SDS011;69765;47.668;19.326;2023-08-20T15:14:54;7.63;;;6.50;;
80423;SDS011;69765;47.668;19.326;2023-08-20T15:17:56;7.18;;;6.47;;
80423;SDS011;69765;47.668;19.326;2023-08-20T15:20:58;9.85;;;6.55;;
80423;SDS011;69765;47.668;19.326;2023-08-20T15:24:01;7.63;;;6.70;;
80423;SDS011;69765;47.668;19.326;2023-08-20T15:27:04;8.05;;;6.22;;
80423;SDS011;69765;47.668;19.326;2023-08-20T15:30:06;6.95;;;6.25;;
80423;SDS011;69765;47.668;19.326;2023-08-20T15:33:11;9.43;;;6.72;;
80423;SDS011;69765;47.668;19.326;2023-08-20T15:36:13;7.32;;;6.57;;
80423;SDS011;69765;47.668;19.326;2023-08-20T15:39:15;8.05;;;6.82;;
80423;SDS011;69765;47.668;19.326;2023-08-20T15:42:20;9.30;;;7.10;;
80423;SDS011;69765;47.668;19.326;2023-08-20T15:45:22;7.55;;;6.60;;
80423;SDS011;69765;47.668;19.326;2023-08-20T15:48:24;9.35;;;7.25;;
80423;SDS011;69765;47.668;19.326;2023-08-20T15:51:26;7.75;;;6.93;;
80423;SDS011;69765;47.668;19.326;2023-08-20T15:54:28;9.82;;;6.97;;
80423;SDS011;69765;47.668;19.326;2023-08-20T15:57:30;8.10;;;6.88;;
80423;SDS011;69765;47.668;19.326;2023-08-20T16:00:33;8.23;;;7.40;;
80423;SDS011;69765;47.668;19.326;2023-08-20T16:03:37;11.05;;;7.00;;
80423;SDS011;69765;47.668;19.326;2023-08-20T16:06:39;7.25;;;6.53;;
80423;SDS011;69765;47.668;19.326;2023-08-20T16:09:41;8.00;;;7.20;;
80423;SDS011;69765;47.668;19.326;2023-08-20T16:12:45;7.35;;;6.68;;
80423;SDS011;69765;47.668;19.326;2023-08-20T16:15:47;8.80;;;7.28;;
80423;SDS011;69765;47.668;19.326;2023-08-20T16:18:49;7.93;;;7.13;;
80423;SDS011;69765;47.668;19.326;2023-08-20T16:21:51;11.02;;;7.30;;
80423;SDS011;69765;47.668;19.326;2023-08-20T16:24:53;7.57;;;6.85;;
80423;SDS011;69765;47.668;19.326;2023-08-20T16:27:56;7.72;;;6.93;;
80423;SDS011;69765;47.668;19.326;2023-08-20T16:30:58;7.75;;;6.97;;
80423;SDS011;69765;47.668;19.326;2023-08-20T16:34:01;9.63;;;7.28;;
80423;SDS011;69765;47.668;19.326;2023-08-20T16:37:03;8.27;;;7.32;;
80423;SDS011;69765;47.668;19.326;2023-08-20T16:40:05;10.00;;;8.02;;
80423;SDS011;69765;47.668;19.326;2023-08-20T16:43:09;8.55;;;7.75;;
80423;SDS011;69765;47.668;19.326;2023-08-20T16:46:12;9.70;;;7.90;;
80423;SDS011;69765;47.668;19.326;2023-08-20T16:49:14;9.07;;;7.80;;
80423;SDS011;69765;47.668;19.326;2023-08-20T16:52:16;9.18;;;8.27;;
80423;SDS011;69765;47.668;19.326;2023-08-20T16:55:18;9.07;;;7.22;;
80423;SDS011;69765;47.668;19.326;2023-08-20T16:58:21;11.18;;;8.32;;
80423;SDS011;69765;47.668;19.326;2023-08-20T17:01:24;9.95;;;8.07;;
80423;SDS011;69765;47.668;19.326;2023-08-20T17:04:26;8.73;;;7.88;;
80423;SDS011;69765;47.668;19.326;2023-08-20T17:07:30;9.57;;;8.30;;
80423;SDS011;69765;47.668;19.326;2023-08-20T17:10:32;9.88;;;7.93;;
80423;SDS011;69765;47.668;19.326;2023-08-20T17:13:35;14.80;;;8.02;;
80423;SDS011;69765;47.668;19.326;2023-08-20T17:16:38;10.52;;;8.70;;
80423;SDS011;69765;47.668;19.326;2023-08-20T17:19:40;9.80;;;8.82;;
80423;SDS011;69765;47.668;19.326;2023-08-20T17:22:42;10.70;;;8.25;;
80423;SDS011;69765;47.668;19.326;2023-08-20T17:25:44;15.32;;;8.80;;
80423;SDS011;69765;47.668;19.326;2023-08-20T17:28:46;9.52;;;8.57;;
80423;SDS011;69765;47.668;19.326;2023-08-20T17:31:48;10.30;;;9.27;;
80423;SDS011;69765;47.668;19.326;2023-08-20T17:34:50;11.80;;;9.27;;
80423;SDS011;69765;47.668;19.326;2023-08-20T17:37:52;16.60;;;10.82;;
80423;SDS011;69765;47.668;19.326;2023-08-20T17:40:54;12.40;;;10.05;;
80423;SDS011;69765;47.668;19.326;2023-08-20T17:43:56;15.25;;;10.75;;
80423;SDS011;69765;47.668;19.326;2023-08-20T17:46:58;14.30;;;10.15;;
80423;SDS011;69765;47.668;19.326;2023-08-20T17:50:00;13.23;;;9.55;;
80423;SDS011;69765;47.668;19.326;2023-08-20T17:53:03;13.20;;;10.25;;
80423;SDS011;69765;47.668;19.326;2023-08-20T17:56:06;11.45;;;9.48;;
80423;SDS011;69765;47.668;19.326;2023-08-20T17:59:08;11.13;;;9.00;;
80423;SDS011;69765;47.668;19.326;2023-08-20T18:02:10;12.75;;;10.57;;
80423;SDS011;69765;47.668;19.326;2023-08-20T18:05:12;11.13;;;9.45;;
80423;SDS011;69765;47.668;19.326;2023-08-20T18:08:14;9.52;;;8.52;;
80423;SDS011;69765;47.668;19.326;2023-08-20T18:11:17;10.82;;;9.32;;